Time;durP1;ratioP1;P1;durP2;ratioP2;P2;SDS_P1;SDS_P2;PMS_P1;PMS_P2;Temp;Humidity;BMP_temperature;BMP_pressure;BME280_temperature;BME280_humidity;BME280_pressure;Samples;Min_cycle;Max_cycle;Signal;HPM_P1;HPM_P2
2022/09/14 00:00:32;;;;;;;11.23;5.32;;;;;;;15.29;100.00;97633.28;2583953;28;20120;-83
2022/09/14 00:02:08;;;;;;;9.52;5.05;;;;;;;15.56;100.00;97628.13;2584122;28;20050;-84
2022/09/14 00:03:23;;;;;;;6.07;4.88;;;;;;;15.62;100.00;97618.97;2583920;28;20053;-84
2022/09/14 00:04:40;;;;;;;6.82;4.78;;;;;;;15.28;100.00;97623.66;2584504;28;20563;-86
2022/09/14 00:06:02;;;;;;;10.10;6.03;;;;;;;15.39;100.00;97619.47;2583571;28;20056;-84
2022/09/14 00:07:18;;;;;;;8.00;5.32;;;;;;;15.51;100.00;97617.03;2584125;28;20072;-84
2022/09/14 00:08:34;;;;;;;10.35;5.88;;;;;;;15.49;100.00;97608.31;2583877;28;20046;-84
2022/09/14 00:09:51;;;;;;;9.75;6.53;;;;;;;15.51;100.00;97609.94;2584035;28;20049;-84
2022/09/14 00:11:13;;;;;;;8.20;5.97;;;;;;;15.62;100.00;97609.25;2583861;28;20054;-84
2022/09/14 00:12:28;;;;;;;10.18;5.75;;;;;;;15.51;100.00;97604.66;2584116;28;20046;-84
2022/09/14 00:13:46;;;;;;;9.52;6.38;;;;;;;15.71;100.00;97607.00;2584175;28;20054;-84
2022/09/14 00:15:02;;;;;;;9.52;5.75;;;;;;;15.55;100.00;97607.97;2584561;28;20058;-86
2022/09/14 00:16:21;;;;;;;6.88;5.43;;;;;;;15.41;100.00;97600.06;2585482;28;20092;-84
2022/09/14 00:17:37;;;;;;;9.73;5.63;;;;;;;15.52;100.00;97609.00;2585685;28;20107;-84
2022/09/14 00:18:55;;;;;;;7.10;5.20;;;;;;;15.65;100.00;97598.53;2586108;28;20117;-83
2022/09/14 00:20:11;;;;;;;11.85;6.40;;;;;;;15.76;100.00;97597.00;2585958;28;20485;-84
2022/09/14 00:21:27;;;;;;;10.13;5.72;;;;;;;15.73;100.00;97598.06;2585038;28;20096;-85
2022/09/14 00:22:42;;;;;;;7.53;4.90;;;;;;;15.56;100.00;97600.88;2585616;28;20061;-84
2022/09/14 00:23:58;;;;;;;8.98;5.50;;;;;;;15.47;100.00;97595.25;2585842;28;20555;-84
2022/09/14 00:25:13;;;;;;;9.32;6.10;;;;;;;15.50;100.00;97602.09;2585769;28;20082;-85
2022/09/14 00:26:29;;;;;;;8.70;5.78;;;;;;;15.25;100.00;97607.09;2585684;28;20049;-84
2022/09/14 00:27:44;;;;;;;13.35;6.07;;;;;;;15.11;100.00;97609.72;2585942;28;20045;-85
2022/09/14 00:29:03;;;;;;;10.77;6.50;;;;;;;15.05;100.00;97602.19;2586161;28;20042;-86
2022/09/14 00:30:20;;;;;;;9.90;6.55;;;;;;;15.05;100.00;97595.13;2585556;28;20053;-86
2022/09/14 00:31:37;;;;;;;11.05;6.65;;;;;;;15.02;100.00;97597.94;2586017;28;20546;-87
2022/09/14 00:32:53;;;;;;;10.25;6.88;;;;;;;15.07;100.00;97595.03;2585765;28;20053;-85
2022/09/14 00:34:12;;;;;;;12.60;7.20;;;;;;;15.08;100.00;97599.38;2585873;28;20046;-85
2022/09/14 00:35:28;;;;;;;8.00;6.30;;;;;;;15.07;100.00;97593.22;2585538;28;20480;-85
2022/09/14 00:36:46;;;;;;;11.60;7.68;;;;;;;15.14;100.00;97592.88;2586150;28;20241;-88
2022/09/14 00:38:01;;;;;;;10.77;7.00;;;;;;;15.18;100.00;97587.34;2585713;28;20096;-90
2022/09/14 00:39:20;;;;;;;9.98;6.03;;;;;;;15.20;100.00;97585.44;2585512;28;20054;-86
2022/09/14 00:40:36;;;;;;;9.60;6.30;;;;;;;15.34;100.00;97587.22;2585657;28;20121;-85
2022/09/14 00:41:52;;;;;;;8.38;6.60;;;;;;;15.36;100.00;97584.50;2586127;28;20093;-85
2022/09/14 00:43:15;;;;;;;10.18;6.28;;;;;;;15.36;100.00;97582.69;2585571;28;20046;-85
2022/09/14 00:44:30;;;;;;;9.65;6.13;;;;;;;15.57;100.00;97584.97;2585966;28;20144;-84
2022/09/14 00:45:46;;;;;;;10.00;5.95;;;;;;;15.54;100.00;97590.44;2585230;28;20077;-89
2022/09/14 00:47:01;;;;;;;7.55;5.60;;;;;;;15.38;100.00;97593.16;2585669;28;20560;-88
2022/09/14 00:48:18;;;;;;;7.35;5.85;;;;;;;15.48;100.00;97596.06;2585373;28;20535;-87
2022/09/14 00:49:40;;;;;;;9.70;6.10;;;;;;;15.48;100.00;97596.94;2585618;28;20056;-85
2022/09/14 00:50:55;;;;;;;10.02;6.05;;;;;;;15.55;100.00;97594.78;2585943;28;20061;-85
2022/09/14 00:52:25;;;;;;;7.03;5.45;;;;;;;15.58;100.00;97591.94;2586141;28;20104;-84
2022/09/14 00:53:40;;;;;;;9.20;6.03;;;;;;;15.57;100.00;97597.28;2585640;28;20049;-84
2022/09/14 00:55:05;;;;;;;10.60;5.65;;;;;;;15.57;100.00;97606.06;2585590;28;20065;-84
2022/09/14 00:56:21;;;;;;;8.93;5.57;;;;;;;15.63;100.00;97603.03;2585491;28;20058;-84
2022/09/14 00:57:42;;;;;;;12.75;5.90;;;;;;;15.61;100.00;97604.94;2585489;28;20117;-84
2022/09/14 00:59:01;;;;;;;8.98;5.47;;;;;;;15.67;100.00;97606.34;2585524;28;20061;-84
2022/09/14 01:00:20;;;;;;;6.50;5.03;;;;;;;15.65;100.00;97598.53;2576013;28;20058;-84
2022/09/14 01:01:36;;;;;;;7.88;5.63;;;;;;;15.73;100.00;97590.16;2580327;28;20583;-84
2022/09/14 01:02:53;;;;;;;6.97;5.47;;;;;;;15.81;100.00;97589.66;2586276;28;20058;-85
2022/09/14 01:04:08;;;;;;;6.55;5.13;;;;;;;15.77;100.00;97588.13;2586306;28;20054;-84
2022/09/14 01:05:50;;;;;;;6.85;5.50;;;;;;;15.74;100.00;97590.97;2585913;28;20053;-85
2022/09/14 01:07:44;;;;;;;8.00;5.10;;;;;;;15.61;100.00;97575.91;2585408;28;20087;-86
2022/09/14 01:09:17;;;;;;;8.85;5.28;;;;;;;15.41;100.00;97578.94;2586016;28;20058;-84
2022/09/14 01:10:42;;;;;;;10.18;5.30;;;;;;;15.35;100.00;97586.28;2585870;28;20061;-85
2022/09/14 01:12:03;;;;;;;8.48;5.65;;;;;;;15.56;100.00;97585.06;2585089;28;20057;-90
2022/09/14 01:13:26;;;;;;;11.65;6.22;;;;;;;15.59;100.00;97585.72;2585968;28;20053;-84
2022/09/14 01:14:49;;;;;;;8.57;5.15;;;;;;;15.37;100.00;97587.06;2585874;28;20428;-88
2022/09/14 01:16:16;;;;;;;8.45;5.55;;;;;;;15.29;100.00;97581.41;2585866;28;20053;-85
2022/09/14 01:17:59;;;;;;;7.60;5.32;;;;;;;15.06;100.00;97580.16;2585245;28;20164;-87
2022/09/14 01:19:49;;;;;;;7.35;5.57;;;;;;;15.15;100.00;97578.75;2585741;28;20432;-86
2022/09/14 01:21:18;;;;;;;7.35;5.38;;;;;;;15.13;100.00;97575.38;2584970;28;20053;-88
2022/09/14 01:22:58;;;;;;;7.72;6.00;;;;;;;15.29;100.00;97572.63;2585687;28;20582;-89
2022/09/14 01:24:33;;;;;;;8.07;5.10;;;;;;;15.24;100.00;97568.50;2582117;28;20073;-86
2022/09/14 01:26:07;;;;;;;8.20;5.80;;;;;;;15.34;100.00;97566.13;2583070;28;20484;-87
2022/09/14 01:27:31;;;;;;;7.97;5.68;;;;;;;15.38;100.00;97554.47;2585352;28;20049;-85
2022/09/14 01:28:54;;;;;;;10.27;5.70;;;;;;;15.38;100.00;97559.75;2585232;28;20073;-85
2022/09/14 01:30:16;;;;;;;;;;;;;;;15.50;100.00;97565.16;2586066;28;20045;-85
2022/09/14 01:31:41;;;;;;;7.63;5.47;;;;;;;15.46;100.00;97563.69;2585020;28;20010;-92
2022/09/14 01:33:31;;;;;;;7.82;5.30;;;;;;;15.45;100.00;97554.94;2585471;28;20184;-85
2022/09/14 01:35:11;;;;;;;8.48;4.95;;;;;;;15.33;100.00;97551.25;2576037;28;20050;-87
2022/09/14 01:36:31;;;;;;;8.73;5.30;;;;;;;15.27;100.00;97543.72;2582868;28;20058;-86
2022/09/14 01:37:56;;;;;;;8.73;4.95;;;;;;;15.35;100.00;97554.63;2585783;28;20501;-86
2022/09/14 01:39:13;;;;;;;8.48;5.88;;;;;;;15.54;100.00;97564.06;2585498;28;20046;-86
2022/09/14 01:40:38;;;;;;;8.40;5.70;;;;;;;15.52;100.00;97555.41;2581200;28;20823;-86
2022/09/14 01:41:55;;;;;;;7.93;5.10;;;;;;;15.58;100.00;97562.91;2585028;28;20049;-84
2022/09/14 01:43:18;;;;;;;8.60;5.32;;;;;;;15.62;100.00;97567.03;2585445;28;20057;-85
2022/09/14 01:44:37;;;;;;;9.13;5.82;;;;;;;15.61;100.00;97575.06;2585301;28;20049;-85
2022/09/14 01:45:59;;;;;;;7.45;5.65;;;;;;;15.42;100.00;97572.72;2585021;28;20046;-84
2022/09/14 01:47:19;;;;;;;10.77;6.15;;;;;;;15.63;100.00;97570.53;2584904;28;20046;-87
2022/09/14 01:48:47;;;;;;;8.20;6.13;;;;;;;15.58;100.00;97562.91;2584656;28;20124;-86
2022/09/14 01:50:26;;;;;;;7.22;6.03;;;;;;;15.64;100.00;97562.50;2573112;28;20053;-86
2022/09/14 01:51:46;;;;;;;11.20;5.63;;;;;;;15.62;100.00;97569.69;2577771;28;20508;-87
2022/09/14 01:53:09;;;;;;;8.45;5.57;;;;;;;15.65;100.00;97572.16;2583085;28;20049;-84
2022/09/14 01:54:52;;;;;;;6.60;5.40;;;;;;;15.62;100.00;97568.84;2580166;28;20615;-85
2022/09/14 01:56:19;;;;;;;10.45;5.68;;;;;;;15.78;100.00;97559.03;2576387;28;20141;-84
2022/09/14 01:58:01;;;;;;;7.18;5.63;;;;;;;15.70;100.00;97560.44;2580488;28;20049;-84
2022/09/14 01:59:29;;;;;;;8.00;5.60;;;;;;;15.60;100.00;97560.19;2581733;28;20112;-84
2022/09/14 02:00:47;;;;;;;7.60;5.35;;;;;;;15.47;100.00;97552.19;2574167;28;20402;-85
2022/09/14 02:02:10;;;;;;;10.77;5.65;;;;;;;15.50;100.00;97550.22;2585277;28;20053;-86
2022/09/14 02:03:32;;;;;;;10.38;5.45;;;;;;;15.65;100.00;97543.13;2584974;28;20120;-85
2022/09/14 02:04:56;;;;;;;8.65;5.63;;;;;;;15.76;100.00;97537.16;2583842;28;20505;-85
2022/09/14 02:06:24;;;;;;;8.90;6.20;;;;;;;15.67;100.00;97527.19;2585141;28;20226;-88
2022/09/14 02:07:40;;;;;;;9.55;5.75;;;;;;;15.73;100.00;97516.25;2584703;28;20042;-85
2022/09/14 02:08:56;;;;;;;7.22;5.72;;;;;;;15.70;100.00;97513.78;2585098;28;20477;-91
2022/09/14 02:10:14;;;;;;;6.65;4.93;;;;;;;15.72;100.00;97505.78;2584596;28;20050;-86
2022/09/14 02:11:30;;;;;;;7.60;5.18;;;;;;;15.80;100.00;97506.16;2584524;28;20057;-86
2022/09/14 02:12:45;;;;;;;6.00;4.93;;;;;;;15.72;100.00;97503.16;2585016;28;20065;-85
2022/09/14 02:14:01;;;;;;;7.78;5.05;;;;;;;15.49;100.00;97505.44;2584421;28;20061;-85
2022/09/14 02:15:17;;;;;;;9.60;5.28;;;;;;;15.60;100.00;97512.69;2583019;28;20420;-84
2022/09/14 02:16:33;;;;;;;7.10;5.47;;;;;;;15.59;100.00;97511.00;2584837;28;20057;-89
2022/09/14 02:17:48;;;;;;;6.78;5.20;;;;;;;15.59;100.00;97511.00;2584073;28;20046;-85
2022/09/14 02:19:04;;;;;;;7.60;5.30;;;;;;;15.57;100.00;97512.88;2586055;28;20528;-90
2022/09/14 02:20:31;;;;;;;7.45;5.38;;;;;;;15.66;100.00;97521.06;2581243;28;20054;-84
2022/09/14 02:21:47;;;;;;;8.38;5.45;;;;;;;15.82;100.00;97528.00;2575285;28;20081;-84
2022/09/14 02:23:02;;;;;;;9.13;5.78;;;;;;;15.83;100.00;97529.69;2583024;28;20053;-87
2022/09/14 02:24:18;;;;;;;6.57;5.25;;;;;;;16.02;100.00;97528.53;2581447;28;20054;-85
2022/09/14 02:25:35;;;;;;;5.82;4.90;;;;;;;15.99;100.00;97534.84;2584083;28;20053;-89
2022/09/14 02:26:52;;;;;;;7.80;5.05;;;;;;;15.97;100.00;97535.91;2584430;28;20046;-84
2022/09/14 02:28:08;;;;;;;7.45;5.10;;;;;;;15.86;100.00;97534.78;2585238;28;20058;-85
2022/09/14 02:29:24;;;;;;;6.18;4.90;;;;;;;15.89;100.00;97531.97;2585060;28;20049;-85
2022/09/14 02:31:05;;;;;;;9.52;6.30;;;;;;;15.87;100.00;97535.63;2583513;28;20549;-85
2022/09/14 02:32:42;;;;;;;7.72;5.43;;;;;;;15.88;100.00;97535.50;2584754;28;20053;-85
2022/09/14 02:34:09;;;;;;;6.93;5.40;;;;;;;15.96;100.00;97540.34;2584780;28;20057;-84
2022/09/14 02:35:34;;;;;;;10.18;5.70;;;;;;;15.96;100.00;97535.06;2584325;28;20527;-86
2022/09/14 02:37:09;;;;;;;6.88;5.40;;;;;;;15.94;100.00;97527.25;2584190;28;20566;-89
2022/09/14 02:38:39;;;;;;;7.28;5.63;;;;;;;15.83;100.00;97524.41;2584596;28;20479;-89
2022/09/14 02:40:00;;;;;;;7.78;5.40;;;;;;;15.85;100.00;97521.66;2584308;28;20054;-86
2022/09/14 02:41:25;;;;;;;7.07;5.75;;;;;;;15.82;100.00;97522.72;2584272;28;20054;-85
2022/09/14 02:43:04;;;;;;;8.23;6.07;;;;;;;15.81;100.00;97529.78;2584358;28;20046;-85
2022/09/14 02:44:32;;;;;;;9.10;5.65;;;;;;;15.80;100.00;97527.25;2585237;28;20401;-87
2022/09/14 02:46:12;;;;;;;7.07;5.30;;;;;;;15.80;100.00;97527.25;2583537;28;20069;-85
2022/09/14 02:47:41;;;;;;;7.20;5.85;;;;;;;15.91;100.00;97531.88;2581352;28;20471;-85
2022/09/14 02:49:20;;;;;;;9.45;6.40;;;;;;;15.78;100.00;97539.69;2582650;28;20115;-88
2022/09/14 02:50:44;;;;;;;7.70;4.93;;;;;;;15.90;100.00;97546.03;2583935;28;20050;-84
2022/09/14 02:52:14;;;;;;;8.07;5.95;;;;;;;15.83;100.00;97542.91;2584392;28;20053;-85
2022/09/14 02:53:44;;;;;;;7.03;5.25;;;;;;;15.85;100.00;97550.69;2584304;28;20077;-85
2022/09/14 02:55:09;;;;;;;6.32;5.40;;;;;;;15.91;100.00;97548.53;2584678;28;20085;-84
2022/09/14 02:56:27;;;;;;;8.05;6.00;;;;;;;15.91;100.00;97561.75;2584021;28;20054;-85
2022/09/14 02:57:59;;;;;;;8.10;5.32;;;;;;;15.95;100.00;97549.19;2581449;28;20058;-85
2022/09/14 02:59:15;;;;;;;6.83;5.30;;;;;;;15.98;100.00;97553.44;2580192;28;20625;-85
2022/09/14 03:00:35;;;;;;;12.43;6.10;;;;;;;15.98;100.00;97543.72;2584580;28;20739;-85
2022/09/14 03:01:51;;;;;;;8.93;5.97;;;;;;;15.87;100.00;97547.03;2583651;28;20058;-86
2022/09/14 03:03:09;;;;;;;7.15;5.68;;;;;;;15.71;100.00;97541.88;2584722;28;20452;-86
2022/09/14 03:04:25;;;;;;;7.60;6.20;;;;;;;15.59;100.00;97538.22;2584215;28;20061;-85
2022/09/14 03:05:41;;;;;;;15.80;6.30;;;;;;;15.68;100.00;97537.66;2584656;28;20069;-86
2022/09/14 03:06:57;;;;;;;7.72;5.80;;;;;;;15.70;100.00;97534.06;2582583;28;20054;-89
2022/09/14 03:08:12;;;;;;;8.20;5.95;;;;;;;15.68;100.00;97528.88;2582710;28;20046;-87
2022/09/14 03:09:28;;;;;;;9.80;5.97;;;;;;;15.73;100.00;97528.59;2583450;28;20049;-86
2022/09/14 03:10:43;;;;;;;6.88;5.50;;;;;;;15.73;100.00;97529.44;2581959;28;20045;-85
2022/09/14 03:11:59;;;;;;;7.40;5.28;;;;;;;15.84;100.00;97523.47;2583121;28;20053;-86
2022/09/14 03:13:14;;;;;;;7.55;5.38;;;;;;;15.78;100.00;97522.06;2580839;28;20540;-86
2022/09/14 03:14:30;;;;;;;7.00;5.55;;;;;;;15.80;100.00;97511.44;2583116;28;20057;-87
2022/09/14 03:15:46;;;;;;;7.07;4.97;;;;;;;15.92;100.00;97512.44;2582081;28;20049;-88
2022/09/14 03:17:01;;;;;;;5.70;4.82;;;;;;;15.93;100.00;97509.72;2580828;28;20500;-87
2022/09/14 03:18:17;;;;;;;6.28;5.03;;;;;;;15.67;100.00;97506.94;2581332;28;20045;-87
2022/09/14 03:19:33;;;;;;;7.43;5.22;;;;;;;15.72;100.00;97516.34;2583875;28;20049;-88
2022/09/14 03:20:48;;;;;;;9.50;6.25;;;;;;;15.65;100.00;97513.25;2584389;28;20054;-88
2022/09/14 03:22:04;;;;;;;6.82;5.50;;;;;;;15.74;100.00;97517.09;2584081;28;20504;-87
2022/09/14 03:23:20;;;;;;;7.55;5.25;;;;;;;15.90;100.00;97514.34;2584646;28;20046;-88
2022/09/14 03:24:36;;;;;;;10.70;6.47;;;;;;;15.88;100.00;97524.13;2581408;28;20050;-87
2022/09/14 03:25:51;;;;;;;7.25;5.47;;;;;;;15.70;100.00;97519.06;2584622;28;20050;-87
2022/09/14 03:27:07;;;;;;;8.90;5.93;;;;;;;15.67;100.00;97520.13;2584047;28;20052;-87
2022/09/14 03:28:22;;;;;;;8.80;5.63;;;;;;;15.78;100.00;97522.06;2584180;28;20053;-86
2022/09/14 03:29:38;;;;;;;6.47;4.97;;;;;;;15.97;100.00;97518.25;2584028;28;20415;-87
2022/09/14 03:30:54;;;;;;;5.97;4.68;;;;;;;16.03;100.00;97509.97;2583774;28;20489;-87
2022/09/14 03:32:11;;;;;;;7.90;5.20;;;;;;;15.99;100.00;97503.16;2585262;28;20066;-87
2022/09/14 03:33:26;;;;;;;8.63;5.68;;;;;;;15.76;100.00;97502.00;2584839;28;20054;-85
2022/09/14 03:34:42;;;;;;;6.85;5.13;;;;;;;15.51;100.00;97503.59;2583682;28;20461;-85
2022/09/14 03:35:57;;;;;;;7.18;5.53;;;;;;;15.60;100.00;97502.97;2584456;28;20073;-85
2022/09/14 03:37:13;;;;;;;9.15;5.95;;;;;;;15.74;100.00;97503.88;2584539;28;20252;-86
2022/09/14 03:38:29;;;;;;;8.45;6.47;;;;;;;15.87;100.00;97499.50;2583979;28;20058;-86
2022/09/14 03:39:44;;;;;;;7.00;5.78;;;;;;;15.95;100.00;97507.81;2583689;28;20054;-85
2022/09/14 03:41:00;;;;;;;7.72;5.57;;;;;;;15.99;100.00;97499.69;2583315;28;20057;-86
2022/09/14 03:42:16;;;;;;;8.00;5.55;;;;;;;16.01;100.00;97493.38;2584277;28;20066;-89
2022/09/14 03:43:32;;;;;;;8.15;5.97;;;;;;;15.80;100.00;97487.69;2584180;28;20050;-87
2022/09/14 03:44:48;;;;;;;9.25;5.63;;;;;;;15.99;100.00;97487.31;2583799;28;20050;-86
2022/09/14 03:46:12;;;;;;;8.25;5.43;;;;;;;15.84;100.00;97483.03;2584161;28;20566;-87
2022/09/14 03:47:28;;;;;;;8.13;6.15;;;;;;;15.74;100.00;97493.34;2583603;28;20065;-86
2022/09/14 03:48:43;;;;;;;8.85;6.32;;;;;;;15.78;100.00;97492.19;2583130;28;20100;-86
2022/09/14 03:49:59;;;;;;;9.63;6.88;;;;;;;15.87;100.00;97503.97;2584930;28;20053;-85
2022/09/14 03:51:15;;;;;;;8.23;6.35;;;;;;;15.72;100.00;97500.50;2586289;28;20720;-88
2022/09/14 03:52:33;;;;;;;9.27;6.03;;;;;;;15.78;100.00;97508.00;2585571;28;20138;-85
2022/09/14 03:53:48;;;;;;;8.95;6.43;;;;;;;15.92;100.00;97496.59;2585876;28;20049;-86
2022/09/14 03:55:06;;;;;;;7.35;5.75;;;;;;;15.94;100.00;97498.22;2586136;28;20416;-89
2022/09/14 03:56:22;;;;;;;7.35;5.90;;;;;;;15.78;100.00;97493.03;2585864;28;20386;-85
2022/09/14 03:57:38;;;;;;;7.65;5.97;;;;;;;15.84;100.00;97491.81;2585896;28;20061;-85
2022/09/14 03:58:54;;;;;;;7.30;5.45;;;;;;;15.93;100.00;97498.31;2585701;28;20580;-86
2022/09/14 04:00:10;;;;;;;10.48;5.80;;;;;;;16.00;100.00;97496.97;2585759;28;20049;-86
2022/09/14 04:01:26;;;;;;;7.65;5.15;;;;;;;16.04;100.00;97494.94;2584812;28;20104;-86
2022/09/14 04:02:41;;;;;;;6.38;5.07;;;;;;;16.02;100.00;97487.16;2585727;28;20038;-85
2022/09/14 04:03:58;;;;;;;9.38;5.72;;;;;;;15.93;100.00;97477.19;2585618;28;20544;-86
2022/09/14 04:05:14;;;;;;;7.32;5.60;;;;;;;15.87;100.00;97477.56;2585501;28;20042;-88
2022/09/14 04:06:31;;;;;;;8.85;5.53;;;;;;;15.87;100.00;97477.56;2585932;28;20050;-85
2022/09/14 04:07:47;;;;;;;6.13;5.20;;;;;;;15.75;100.00;97458.94;2575698;28;20050;-87
2022/09/14 04:09:02;;;;;;;7.60;6.00;;;;;;;15.68;100.00;97458.50;2580230;28;20046;-85
2022/09/14 04:10:18;;;;;;;9.48;6.28;;;;;;;15.58;100.00;97457.38;2585070;28;20041;-84
2022/09/14 04:11:33;;;;;;;7.85;6.15;;;;;;;15.73;100.00;97455.56;2585941;28;20038;-87
2022/09/14 04:12:49;;;;;;;7.57;5.47;;;;;;;15.81;100.00;97458.53;2585928;28;20070;-86
2022/09/14 04:14:06;;;;;;;8.45;5.82;;;;;;;15.74;100.00;97462.53;2585822;28;20210;-91
2022/09/14 04:15:22;;;;;;;7.55;5.85;;;;;;;15.63;100.00;97457.91;2585774;28;20079;-86
2022/09/14 04:16:38;;;;;;;9.07;5.82;;;;;;;15.81;100.00;97462.97;2585824;28;20054;-86
2022/09/14 04:17:54;;;;;;;6.95;5.63;;;;;;;15.64;100.00;97462.25;2585919;28;20057;-85
2022/09/14 04:19:11;;;;;;;9.82;5.95;;;;;;;15.71;100.00;97456.59;2585619;28;20213;-86
2022/09/14 04:20:26;;;;;;;7.25;5.97;;;;;;;15.75;100.00;97464.22;2585865;28;20062;-84
2022/09/14 04:21:42;;;;;;;7.22;5.68;;;;;;;15.74;100.00;97464.31;2582078;28;21506;-83
2022/09/14 04:22:57;;;;;;;7.80;5.72;;;;;;;15.84;100.00;97464.53;2585081;28;20512;-85
2022/09/14 04:24:13;;;;;;;8.05;6.30;;;;;;;15.92;100.00;97459.66;2582797;28;20738;-84
2022/09/14 04:25:28;;;;;;;9.23;5.53;;;;;;;16.02;100.00;97457.25;2584866;28;20124;-84
2022/09/14 04:26:45;;;;;;;8.43;5.57;;;;;;;15.93;100.00;97451.66;2585621;28;20054;-83
2022/09/14 04:28:01;;;;;;;7.63;6.05;;;;;;;15.79;100.00;97449.88;2584447;28;20419;-87
2022/09/14 04:29:16;;;;;;;8.50;5.63;;;;;;;15.80;100.00;97448.09;2585469;28;20042;-86
2022/09/14 04:30:32;;;;;;;7.57;6.13;;;;;;;15.96;100.00;97447.94;2584499;28;20045;-83
2022/09/14 04:31:47;;;;;;;8.20;6.25;;;;;;;16.02;100.00;97452.84;2583754;28;20292;-83
2022/09/14 04:33:03;;;;;;;8.65;5.78;;;;;;;16.06;100.00;97450.81;2584448;28;20062;-86
2022/09/14 04:34:18;;;;;;;9.65;5.60;;;;;;;16.09;100.00;97461.19;2582318;28;20049;-87
2022/09/14 04:35:36;;;;;;;6.20;5.25;;;;;;;16.09;100.00;97455.91;2582439;28;20041;-85
2022/09/14 04:36:52;;;;;;;6.53;5.22;;;;;;;16.04;100.00;97463.28;2585039;28;20056;-84
2022/09/14 04:38:07;;;;;;;5.80;5.20;;;;;;;15.92;100.00;97459.66;2585262;28;20110;-88
2022/09/14 04:39:25;;;;;;;9.18;6.20;;;;;;;15.81;100.00;97452.41;2585084;28;20046;-83
2022/09/14 04:40:40;;;;;;;7.82;5.57;;;;;;;15.99;100.00;97458.28;2585079;28;20046;-84
2022/09/14 04:41:56;;;;;;;7.40;5.68;;;;;;;16.02;100.00;97455.47;2585448;28;20046;-84
2022/09/14 04:43:11;;;;;;;8.73;5.32;;;;;;;16.10;100.00;97463.72;2585210;28;20073;-84
2022/09/14 04:44:27;;;;;;;6.32;5.20;;;;;;;16.15;100.00;97462.56;2584253;28;20046;-83
2022/09/14 04:45:43;;;;;;;7.90;5.35;;;;;;;16.18;100.00;97457.91;2585230;28;20065;-85
2022/09/14 04:46:58;;;;;;;7.45;5.65;;;;;;;16.09;100.00;97458.56;2584693;28;20046;-84
2022/09/14 04:48:14;;;;;;;6.72;5.50;;;;;;;16.07;100.00;97452.53;2585315;28;20583;-84
2022/09/14 04:49:30;;;;;;;7.07;5.20;;;;;;;15.92;100.00;97454.38;2584662;28;20052;-83
2022/09/14 04:50:46;;;;;;;8.45;6.07;;;;;;;15.79;100.00;97443.75;2584757;28;20049;-87
2022/09/14 04:52:01;;;;;;;7.15;5.70;;;;;;;15.67;100.00;97440.09;2585047;28;20053;-85
2022/09/14 04:53:17;;;;;;;7.30;5.85;;;;;;;15.62;100.00;97437.75;2585212;28;20477;-87
2022/09/14 04:54:33;;;;;;;8.50;6.07;;;;;;;15.53;100.00;97435.75;2574858;28;20081;-85
2022/09/14 04:55:48;;;;;;;7.85;5.90;;;;;;;15.56;100.00;97440.81;2579120;28;20100;-85
2022/09/14 04:57:11;;;;;;;7.38;6.28;;;;;;;15.64;100.00;97435.88;2585401;28;20508;-84
2022/09/14 04:58:29;;;;;;;8.18;6.18;;;;;;;15.84;100.00;97438.16;2575784;28;20058;-86
2022/09/14 04:59:44;;;;;;;8.73;5.88;;;;;;;15.99;100.00;97431.06;2580106;28;20061;-84
2022/09/14 05:01:05;;;;;;;7.78;6.03;;;;;;;15.90;100.00;97429.88;2584837;28;20489;-83
2022/09/14 05:02:20;;;;;;;6.93;5.55;;;;;;;15.94;100.00;97432.22;2585006;28;20137;-84
2022/09/14 05:03:38;;;;;;;7.07;5.50;;;;;;;16.07;100.00;97431.41;2585010;28;20540;-87
2022/09/14 05:04:53;;;;;;;9.00;5.78;;;;;;;15.92;100.00;97434.13;2584810;28;20077;-86
2022/09/14 05:06:15;;;;;;;8.55;6.00;;;;;;;16.04;100.00;97429.81;2585116;28;20050;-84
2022/09/14 05:07:30;;;;;;;7.32;5.20;;;;;;;16.12;100.00;97428.44;2584987;28;20515;-83
2022/09/14 05:08:47;;;;;;;8.50;5.55;;;;;;;16.23;100.00;97436.47;2585321;28;20053;-84
2022/09/14 05:10:04;;;;;;;7.03;4.88;;;;;;;16.22;100.00;97433.00;2584788;28;20843;-84
2022/09/14 05:11:23;;;;;;;6.57;4.90;;;;;;;16.22;100.00;97430.38;2584902;28;20249;-85
2022/09/14 05:12:38;;;;;;;5.80;4.82;;;;;;;16.07;100.00;97431.41;2585375;28;20459;-85
2022/09/14 05:13:55;;;;;;;7.80;5.32;;;;;;;16.15;100.00;97425.59;2584929;28;20080;-84
2022/09/14 05:15:11;;;;;;;6.13;4.68;;;;;;;16.14;100.00;97431.84;2584874;28;20277;-83
2022/09/14 05:16:29;;;;;;;6.05;5.20;;;;;;;16.14;100.00;97431.84;2585108;28;20053;-83
2022/09/14 05:17:44;;;;;;;6.97;4.30;;;;;;;16.28;100.00;97433.53;2584946;28;20081;-84
2022/09/14 05:19:03;;;;;;;5.70;4.35;;;;;;;16.31;100.00;97428.91;2585668;28;20412;-83
2022/09/14 05:20:19;;;;;;;5.45;4.63;;;;;;;16.27;100.00;97439.78;2584793;28;20196;-83
2022/09/14 05:21:36;;;;;;;7.65;4.57;;;;;;;16.27;100.00;97437.13;2584995;28;20914;-83
2022/09/14 05:22:51;;;;;;;5.25;4.72;;;;;;;16.22;100.00;97430.38;2584896;28;20089;-84
2022/09/14 05:24:16;;;;;;;6.03;4.57;;;;;;;16.21;100.00;97436.59;2584206;28;20176;-84
2022/09/14 05:25:31;;;;;;;6.38;4.50;;;;;;;16.27;100.00;97442.41;2584358;28;20049;-84
2022/09/14 05:26:47;;;;;;;7.43;4.75;;;;;;;16.26;100.00;97435.44;2584803;28;20381;-83
2022/09/14 05:28:02;;;;;;;5.68;4.47;;;;;;;16.31;100.00;97434.19;2582061;28;20157;-87
2022/09/14 05:29:18;;;;;;;5.65;4.55;;;;;;;16.24;100.00;97449.59;2585004;28;20050;-84
2022/09/14 05:30:39;;;;;;;5.50;4.38;;;;;;;16.06;100.00;97448.16;2584279;28;20049;-84
2022/09/14 05:31:54;;;;;;;6.38;4.35;;;;;;;16.04;100.00;97453.56;2584540;28;20046;-84
2022/09/14 05:33:10;;;;;;;6.63;4.80;;;;;;;15.98;100.00;97455.78;2584380;28;20054;-90
2022/09/14 05:34:29;;;;;;;8.30;6.47;;;;;;;15.87;100.00;97465.19;2584015;28;20416;-85
2022/09/14 05:35:45;;;;;;;9.52;6.60;;;;;;;15.80;100.00;97467.41;2584635;28;20069;-86
2022/09/14 05:37:04;;;;;;;10.15;6.28;;;;;;;15.82;100.00;97467.31;2585835;28;20456;-85
2022/09/14 05:38:19;;;;;;;9.35;6.82;;;;;;;15.97;100.00;97468.09;2586078;28;20480;-84
2022/09/14 05:39:35;;;;;;;8.30;6.35;;;;;;;16.01;100.00;97480.19;2585642;28;20081;-85
2022/09/14 05:40:53;;;;;;;13.90;5.95;;;;;;;15.97;100.00;97477.84;2584523;28;20050;-91
2022/09/14 05:42:09;;;;;;;9.27;5.90;;;;;;;15.87;100.00;97481.03;2582707;28;20046;-95
2022/09/14 05:43:24;;;;;;;26.80;6.50;;;;;;;16.04;100.00;97481.75;2580241;28;20441;-93
2022/09/14 05:44:41;;;;;;;19.45;6.47;;;;;;;15.97;100.00;97483.94;2582677;28;20049;-85
2022/09/14 05:46:04;;;;;;;9.07;5.78;;;;;;;15.98;100.00;97482.16;2582648;28;20108;-85
2022/09/14 05:47:20;;;;;;;9.10;6.15;;;;;;;16.09;100.00;97488.41;2583385;28;20104;-84
2022/09/14 05:48:37;;;;;;;8.02;5.40;;;;;;;16.08;100.00;97476.16;2584009;28;20437;-87
2022/09/14 05:49:53;;;;;;;8.93;5.72;;;;;;;16.08;100.00;97484.09;2583624;28;20061;-84
2022/09/14 05:51:12;;;;;;;7.72;5.93;;;;;;;16.13;100.00;97482.94;2582636;28;20045;-84
2022/09/14 05:52:28;;;;;;;6.70;5.68;;;;;;;16.23;100.00;97484.03;2585106;28;20088;-83
2022/09/14 05:53:52;;;;;;;7.72;5.82;;;;;;;16.24;100.00;97491.84;2581877;28;20053;-84
2022/09/14 05:55:08;;;;;;;7.30;5.70;;;;;;;16.23;100.00;97495.44;2583696;28;20072;-82
2022/09/14 05:56:26;;;;;;;8.27;5.70;;;;;;;16.13;100.00;97497.00;2581544;28;20160;-84
2022/09/14 05:57:41;;;;;;;8.38;5.60;;;;;;;15.97;100.00;97488.41;2584778;28;20057;-81
2022/09/14 05:58:58;;;;;;;6.60;5.50;;;;;;;16.03;100.00;97493.25;2585464;28;20053;-82
2022/09/14 06:00:14;;;;;;;7.57;5.78;;;;;;;16.10;100.00;97486.66;2585413;28;20097;-85
2022/09/14 06:01:31;;;;;;;6.47;5.47;;;;;;;16.17;100.00;97484.44;2585683;28;20065;-82
2022/09/14 06:02:48;;;;;;;7.20;5.65;;;;;;;16.19;100.00;97482.53;2584998;28;20050;-82
2022/09/14 06:04:04;;;;;;;8.02;6.13;;;;;;;16.09;100.00;97483.13;2585399;28;20061;-82
2022/09/14 06:05:21;;;;;;;7.18;6.07;;;;;;;16.23;100.00;97479.59;2585486;28;20081;-82
2022/09/14 06:06:36;;;;;;;6.55;5.10;;;;;;;16.21;100.00;97476.22;2583872;28;20492;-86
2022/09/14 06:07:52;;;;;;;7.05;5.78;;;;;;;16.35;100.00;97474.44;2581516;28;20077;-82
2022/09/14 06:09:08;;;;;;;6.47;5.75;;;;;;;16.25;100.00;97476.84;2584400;28;20070;-82